TimePST,TemperatureF,Dew PointF,Humidity,Sea Level PressureIn,VisibilityMPH,Wind Direction,Wind SpeedMPH,Gust SpeedMPH,PrecipitationIn,Events,Conditions,WindDirDegrees,DateUTC
12:32 AM,48.2,39.2,71,29.81,5.0,SSE,10.4,26.5,0.00,Rain,Light Rain,160,2013-02-05 08:32:00
12:41 AM,46.4,39.2,76,29.82,5.0,South,13.8,24.2,0.00,,Haze,180,2013-02-05 08:41:00
12:51 AM,46.4,39.2,76,29.82,1.8,South,10.4,28.8,0.00,Rain,Light Rain,180,2013-02-05 08:51:00
12:53 AM,46.0,39.9,79,29.83,1.5,South,11.5,28.8,0.00,Rain,Light Rain,170,2013-02-05 08:53:00
1:00 AM,46.4,41.0,81,29.82,1.0,South,9.2,20.7,0.00,Rain,Light Rain,170,2013-02-05 09:00:00
1:06 AM,46.4,41.0,81,29.81,1.2,Variable,6.9,21.9,0.00,Rain,Light Rain,0,2013-02-05 09:06:00
1:08 AM,46.4,41.0,81,29.81,1.5,SSE,9.2,21.9,0.00,Rain,Light Rain,150,2013-02-05 09:08:00
1:28 AM,46.4,41.0,81,29.81,1.5,South,6.9,-,0.03,Rain,Rain,180,2013-02-05 09:28:00
1:53 AM,46.0,41.0,83,29.82,1.5,SSE,6.9,-,0.11,Rain,Rain,150,2013-02-05 09:53:00
2:00 AM,46.4,41.0,81,29.81,1.5,Variable,6.9,-,0.04,Rain,Rain,0,2013-02-05 10:00:00
2:22 AM,46.4,41.0,81,29.79,2.0,SSE,9.2,24.2,0.10,Rain,Rain,150,2013-02-05 10:22:00
2:36 AM,46.4,41.0,81,29.79,3.0,SSE,13.8,21.9,0.13,Rain,Light Rain,150,2013-02-05 10:36:00
2:44 AM,46.4,41.0,81,29.79,1.8,Variable,6.9,19.6,0.14,Rain,Rain,0,2013-02-05 10:44:00
2:53 AM,46.0,42.1,86,29.79,1.2,SSE,6.9,-,0.15,Rain,Light Rain,150,2013-02-05 10:53:00
3:20 AM,46.4,42.8,87,29.77,1.0,SSE,11.5,26.5,0.07,Rain,Light Rain,160,2013-02-05 11:20:00
3:48 AM,46.4,42.8,87,29.78,0.8,SSE,9.2,17.3,0.14,Rain,Rain,160,2013-02-05 11:48:00
3:53 AM,46.0,43.0,89,29.78,0.8,South,6.9,17.3,0.16,Rain,Rain,180,2013-02-05 11:53:00
4:05 AM,46.4,42.8,87,29.78,1.2,SSE,12.7,19.6,0.03,Rain,Light Rain,160,2013-02-05 12:05:00
4:08 AM,46.4,42.8,87,29.78,2.0,South,10.4,24.2,0.03,Rain,Light Rain,180,2013-02-05 12:08:00
4:17 AM,46.4,42.8,87,29.78,5.0,South,8.1,20.7,0.03,,Overcast,170,2013-02-05 12:17:00
4:33 AM,46.4,44.6,93,29.77,1.8,South,9.2,18.4,0.05,Rain,Rain,170,2013-02-05 12:33:00
4:53 AM,48.0,44.1,86,29.78,3.0,South,9.2,20.7,0.09,Rain,Light Rain,170,2013-02-05 12:53:00
5:46 AM,48.2,44.6,87,29.77,2.5,SW,9.2,17.3,0.01,Rain,Light Rain,220,2013-02-05 13:46:00
5:53 AM,48.0,45.0,89,29.77,4.0,South,10.4,17.3,0.01,,Overcast,190,2013-02-05 13:53:00
6:22 AM,48.2,44.6,87,29.77,4.0,South,11.5,18.4,N/A,,Overcast,190,2013-02-05 14:22:00
6:51 AM,48.2,44.6,87,29.77,4.0,South,6.9,-,N/A,,Overcast,190,2013-02-05 14:51:00
6:53 AM,48.0,44.1,86,29.78,4.0,SSW,6.9,-,N/A,,Overcast,200,2013-02-05 14:53:00
7:33 AM,48.2,44.6,87,29.78,3.0,South,6.9,-,N/A,,Overcast,170,2013-02-05 15:33:00
7:53 AM,48.0,44.1,86,29.78,2.0,South,5.8,-,0.00,Rain,Light Rain,180,2013-02-05 15:53:00
8:05 AM,48.2,44.6,87,29.78,1.2,SSW,13.8,24.2,0.01,Rain,Light Rain,210,2013-02-05 16:05:00
8:12 AM,44.6,39.2,81,29.78,0.5,SW,9.2,32.2,0.09,Rain,Heavy Rain,230,2013-02-05 16:12:00
8:25 AM,44.6,41.0,87,29.78,1.5,SSW,5.8,-,0.13,Rain,Light Rain,200,2013-02-05 16:25:00
8:30 AM,44.6,41.0,87,29.78,3.0,SSW,4.6,-,0.14,Rain,Light Rain,210,2013-02-05 16:30:00
8:53 AM,46.9,43.0,86,29.77,3.0,South,8.1,-,0.14,,Overcast,190,2013-02-05 16:53:00
9:00 AM,48.2,42.8,82,29.77,2.5,South,6.9,-,N/A,,Haze,180,2013-02-05 17:00:00
9:11 AM,48.2,44.6,87,29.77,2.5,South,8.1,-,N/A,,Overcast,190,2013-02-05 17:11:00
9:27 AM,48.2,44.6,87,29.78,2.5,SSW,8.1,17.3,N/A,,Overcast,200,2013-02-05 17:27:00
9:53 AM,48.9,45.0,86,29.79,2.5,SSW,6.9,-,N/A,,Overcast,200,2013-02-05 17:53:00
10:53 AM,50.0,44.1,80,29.79,2.5,South,10.4,18.4,0.00,Rain,Light Rain,180,2013-02-05 18:53:00
10:57 AM,50.0,44.6,82,29.79,3.0,South,11.5,18.4,0.00,Rain,Light Rain,190,2013-02-05 18:57:00
11:18 AM,50.0,44.6,82,29.79,2.5,South,10.4,20.7,0.00,,Haze,180,2013-02-05 19:18:00
11:29 AM,50.0,42.8,76,29.79,2.5,South,9.2,18.4,0.00,,Haze,190,2013-02-05 19:29:00
11:53 AM,48.9,43.0,80,29.79,2.5,South,10.4,21.9,0.00,,Haze,180,2013-02-05 19:53:00
12:01 PM,48.2,42.8,82,29.79,2.5,South,6.9,18.4,N/A,,Haze,170,2013-02-05 20:01:00
12:12 PM,48.2,44.6,87,29.78,1.5,Variable,5.8,-,0.00,Rain,Light Rain,0,2013-02-05 20:12:00
12:22 PM,48.2,44.6,87,29.78,1.0,South,9.2,20.7,0.01,Rain,Light Rain,170,2013-02-05 20:22:00
12:31 PM,48.2,44.6,87,29.77,2.0,South,9.2,25.3,0.01,Rain,Light Rain,180,2013-02-05 20:31:00
12:42 PM,48.2,42.8,82,29.77,1.8,South,15.0,21.9,0.01,,Haze,180,2013-02-05 20:42:00
12:53 PM,48.0,43.0,83,29.78,2.0,SSW,9.2,24.2,0.01,Rain,Light Rain,210,2013-02-05 20:53:00
1:04 PM,48.2,42.8,82,29.78,1.2,South,13.8,23.0,0.02,Rain,Rain,190,2013-02-05 21:04:00
1:12 PM,48.2,42.8,82,29.77,1.5,South,10.4,20.7,0.03,Rain,Light Rain,180,2013-02-05 21:12:00
1:18 PM,48.2,42.8,82,29.77,3.0,South,12.7,21.9,0.03,Rain,Light Rain,190,2013-02-05 21:18:00
1:27 PM,48.2,42.8,82,29.77,4.0,South,12.7,23.0,0.03,,Haze,180,2013-02-05 21:27:00
1:44 PM,48.2,42.8,82,29.76,1.8,South,11.5,24.2,0.03,Rain,Light Rain,180,2013-02-05 21:44:00
1:53 PM,48.0,43.0,83,29.77,1.8,South,12.7,23.0,0.04,Rain,Light Rain,180,2013-02-05 21:53:00
2:00 PM,48.2,42.8,82,29.76,2.5,South,10.4,19.6,0.00,Rain,Light Rain,180,2013-02-05 22:00:00
2:21 PM,48.2,42.8,82,29.75,3.0,South,11.5,20.7,0.00,,Haze,180,2013-02-05 22:21:00
2:40 PM,48.2,42.8,82,29.75,1.5,South,11.5,19.6,0.00,Rain,Light Rain,190,2013-02-05 22:40:00
2:43 PM,48.2,42.8,82,29.75,0.8,South,9.2,18.4,0.00,Rain,Rain,190,2013-02-05 22:43:00
2:53 PM,48.0,44.1,86,29.76,1.0,SSW,8.1,17.3,0.06,Rain,Light Rain,200,2013-02-05 22:53:00
2:57 PM,48.2,44.6,87,29.75,1.8,SW,12.7,24.2,0.00,Rain,Light Rain,220,2013-02-05 22:57:00
2:59 PM,48.2,44.6,87,29.76,1.0,SW,15.0,24.2,0.00,Rain,Light Rain,220,2013-02-05 22:59:00
3:07 PM,46.4,42.8,87,29.76,0.5,SSW,12.7,25.3,0.05,Fog-Rain,Heavy Rain,200,2013-02-05 23:07:00
3:15 PM,46.4,41.0,81,29.77,1.0,SSW,15.0,23.0,0.09,Rain,Light Rain,210,2013-02-05 23:15:00
3:22 PM,46.4,41.0,81,29.77,1.5,SW,11.5,21.9,0.10,Rain,Light Rain,220,2013-02-05 23:22:00
3:27 PM,46.4,41.0,81,29.77,0.8,SW,15.0,24.2,0.10,Rain,Rain,220,2013-02-05 23:27:00
3:42 PM,44.6,41.0,87,29.77,1.8,SW,10.4,26.5,0.18,Rain,Light Rain,220,2013-02-05 23:42:00
3:44 PM,46.4,41.0,81,29.77,3.0,SW,10.4,-,0.18,Rain,Light Rain,220,2013-02-05 23:44:00
3:53 PM,46.9,43.0,86,29.77,3.0,SSW,13.8,27.6,0.18,,Overcast,210,2013-02-05 23:53:00
3:58 PM,46.4,42.8,87,29.78,1.5,WSW,15.0,27.6,0.00,Rain,Light Rain,240,2013-02-05 23:58:00
4:04 PM,46.4,41.0,81,29.78,0.8,SW,15.0,26.5,0.02,Rain,Rain,220,2013-02-06 00:04:00
4:09 PM,44.6,39.2,81,29.78,1.0,SW,11.5,23.0,0.04,Rain,Light Rain,220,2013-02-06 00:09:00
4:15 PM,46.4,41.0,81,29.77,2.5,SW,11.5,-,0.05,Rain,Light Rain,230,2013-02-06 00:15:00
4:23 PM,46.4,41.0,81,29.77,3.0,SW,12.7,18.4,0.05,,Haze,220,2013-02-06 00:23:00
4:44 PM,46.4,42.8,87,29.78,2.5,SSW,10.4,18.4,0.05,,Scattered Clouds,200,2013-02-06 00:44:00
4:53 PM,48.0,43.0,83,29.78,2.5,SSW,12.7,20.7,0.05,,Haze,210,2013-02-06 00:53:00
5:08 PM,46.4,42.8,87,29.78,3.0,SW,10.4,18.4,N/A,,Overcast,220,2013-02-06 01:08:00
5:35 PM,46.4,41.0,81,29.79,2.5,SSW,13.8,34.5,0.01,Rain,Light Rain,210,2013-02-06 01:35:00
5:44 PM,46.4,41.0,81,29.79,6.0,SSW,12.7,18.4,0.01,,Haze,210,2013-02-06 01:44:00
5:53 PM,46.0,41.0,83,29.80,5.0,SW,6.9,-,0.01,,Haze,220,2013-02-06 01:53:00
6:18 PM,46.4,41.0,81,29.80,4.0,SSW,9.2,-,N/A,,Haze,200,2013-02-06 02:18:00
6:53 PM,46.9,42.1,83,29.81,4.0,SSW,10.4,18.4,0.00,Rain,Light Rain,200,2013-02-06 02:53:00
7:04 PM,46.4,42.8,87,29.81,4.0,SSW,10.4,19.6,0.00,,Haze,210,2013-02-06 03:04:00
7:28 PM,46.4,42.8,87,29.81,4.0,SSW,9.2,17.3,0.00,,Haze,210,2013-02-06 03:28:00
7:53 PM,46.0,39.9,79,29.83,2.0,SW,12.7,24.2,0.02,Rain,Light Rain,230,2013-02-06 03:53:00
8:03 PM,44.6,39.2,81,29.82,3.0,SW,11.5,18.4,0.00,Rain,Light Rain,220,2013-02-06 04:03:00
8:30 PM,46.4,39.2,76,29.83,2.5,WSW,9.2,26.5,0.01,Rain,Light Rain,240,2013-02-06 04:30:00
8:39 PM,44.6,39.2,81,29.84,5.0,SW,9.2,-,0.02,Rain,Light Rain,230,2013-02-06 04:39:00
8:53 PM,45.0,41.0,86,29.85,4.0,SW,6.9,-,0.02,,Mostly Cloudy,220,2013-02-06 04:53:00
9:53 PM,46.0,39.9,79,29.86,5.0,SW,8.1,-,0.00,,Haze,220,2013-02-06 05:53:00
10:48 PM,46.4,41.0,81,29.88,4.0,SSW,5.8,-,N/A,,Haze,210,2013-02-06 06:48:00
10:53 PM,46.4,41.0,81,29.88,4.0,SSW,5.8,-,N/A,,Haze,200,2013-02-06 06:53:00
11:18 PM,46.4,39.2,76,29.88,5.0,SSW,6.9,-,N/A,,Haze,200,2013-02-06 07:18:00
11:46 PM,46.4,41.0,81,29.89,5.0,SSW,6.9,-,N/A,,Haze,210,2013-02-06 07:46:00
11:53 PM,46.4,41.0,81,29.90,4.0,SSW,5.8,-,N/A,,Haze,200,2013-02-06 07:53:00